WETO2: N Canadian River, Wetumka, OK

Data processed at Thu May 23 2019 23:50


All information presented herein is the property of the government of the United States of America and may be revised or deleted at any time without prior notice.
Dissemination of this information without the expressed written consent of the Public Affairs Office, Tulsa District U.S. Army Corps of Engineers is strictly prohibited.
These data are gathered electronically and, as presented, have not undergone any form of quality control. These data are not guaranteed to be valid or correct.
Go to home page.
Go to station list.
Go to home page.

Upstream stations:

Downstream station:
Previous Day
Next Day
Current Day
    
SHEF ID:       WETO2     North Canadian River near Wetumk
STATION TYPE:  
Regulating: Stage =    14.00, Flow =     9825

               PRECIP     STAGE  RIV-FLOW  BAT-LOAD
                   in        ft       cfs      volt
              Ccp-Rev   Ccp-Rev   Ccp-Rev   Ccp-Rev
(US/Central)
05/23 00:00      0.00     13.09      8206     12.81
05/23 01:00      0.00     13.17      8343     12.81
05/23 02:00      0.00     13.27      8516     12.81
05/23 03:00      0.00     13.37      8690     12.73
05/23 04:00      0.00     13.44      8813     12.73
05/23 05:00      0.00     13.52      8954     12.73
05/23 06:00      0.00     13.60      9097     12.73
05/23 07:00      0.00     13.57      9043     12.73
05/23 08:00      0.00     13.55      9008     12.73
05/23 09:00      0.00     13.51      8937     12.81
05/23 10:00      0.00     13.39      8725     12.97
05/23 11:00      0.00     13.33      8620     12.97
05/23 12:00      0.00     13.38      8707     13.21
05/23 13:00      0.00     13.37      8690     13.29
05/23 14:00      0.00     13.41      8760     13.21
05/23 15:00      0.00     13.37      8690     13.21
05/23 16:00      0.00     13.39      8725     13.21
05/23 17:00      0.00     13.41      8760     12.97
05/23 18:00      0.00     13.37      8690     12.97
05/23 19:00      0.00     13.39      8725     12.89
05/23 20:00      0.00     13.43      8795     12.89
05/23 21:00      0.00     13.49      8901     12.81
05/23 22:00      0.00     13.53      8972     12.81
05/23 23:00      0.00     13.55      9008     12.81